»·PEaware :: N143VT KONT-KFAT

N143VT :: KONT-KFAT

FLIGHT INFORMATION

Flight Status: Arrived
Operator: Privately registered:
United States
More flights under this callsign
Pilot: Anonymous 16492 (16492)
Aircraft: ECLIPSE 500
(EA50)
More flights by this aircraft type
Origin: KONT Ontario Intl
United States
Destination: KFAT Fresno Yosemite Intl
United States
More flights between these airports :: More routes between these airports
Route: KONT SNSHN3 EHF TTE ALTTA8 KFAT
File this flight plan on PilotEdge
Remarks:
Altitude:
(Current/Filed)
28,000ft
Speed:
(Current/Filed)
350kts
Departed: 24-Jul-18 04:49 PM
Arrived: 24-Jul-18 05:39 PM
Distance/Time
Traveled:
193nm/0:50
Distance/Time
To Go:
Arrived

Flight Plot

Page will automatically refresh every two minutes.

Flight plan parsing failed; only flown route is shown


Map Options




Map Legend


Flown Route
Filed Route
Departure Airport
Arrival Airport
Navaid (VOR, NDB)
Fix

Horizontal Profiles

Position Reports

Time Latitude Longitude Heading Altitude Ground
Speed
24-Jul-18 16:14 34.051690 -117.603017 269 946ft 0kts
24-Jul-18 16:15 34.051690 -117.603017 269 946ft 0kts
24-Jul-18 16:16 34.051690 -117.603017 269 946ft 0kts
24-Jul-18 16:17 34.051690 -117.603017 269 946ft 0kts
24-Jul-18 16:18 34.051690 -117.603017 269 946ft 0kts
24-Jul-18 16:19 34.051690 -117.603017 269 946ft 0kts
24-Jul-18 16:20 34.051690 -117.603017 269 946ft 0kts
24-Jul-18 16:21 34.051690 -117.603017 269 946ft 0kts
24-Jul-18 16:22 34.051690 -117.603017 269 946ft 0kts
24-Jul-18 16:23 34.051690 -117.603017 269 946ft 0kts
24-Jul-18 16:24 34.051690 -117.603017 269 946ft 0kts
24-Jul-18 16:25 34.051690 -117.603017 269 946ft 0kts
24-Jul-18 16:26 34.051690 -117.603017 269 946ft 0kts
24-Jul-18 16:27 34.051690 -117.603017 269 946ft 0kts
24-Jul-18 16:28 34.051690 -117.603017 269 946ft 0kts
24-Jul-18 16:29 34.051690 -117.603017 269 946ft 0kts
24-Jul-18 16:30 34.051690 -117.603017 269 946ft 0kts
24-Jul-18 16:31 34.051690 -117.603017 269 946ft 0kts
24-Jul-18 16:32 34.051690 -117.603017 269 946ft 0kts
24-Jul-18 16:33 34.051690 -117.603017 269 946ft 0kts
24-Jul-18 16:34 34.051690 -117.603017 269 946ft 0kts
24-Jul-18 16:35 34.051690 -117.603017 269 946ft 0kts
24-Jul-18 16:36 34.051690 -117.603017 269 946ft 0kts
24-Jul-18 16:37 34.051690 -117.603017 269 946ft 0kts
24-Jul-18 16:38 34.051690 -117.603017 269 946ft 0kts
24-Jul-18 16:39 34.051690 -117.603017 269 946ft 0kts
24-Jul-18 16:40 34.051690 -117.603017 269 946ft 0kts
24-Jul-18 16:41 34.052885 -117.602739 10 946ft 8kts
24-Jul-18 16:42 34.053140 -117.602529 46 946ft 0kts
24-Jul-18 16:43 34.053853 -117.600980 89 946ft 15kts
24-Jul-18 16:44 34.053863 -117.594057 90 946ft 23kts
24-Jul-18 16:45 34.053854 -117.587965 89 946ft 13kts
24-Jul-18 16:46 34.053842 -117.584500 91 946ft 11kts
24-Jul-18 16:47 34.053955 -117.582502 50 946ft 0kts
24-Jul-18 16:48 34.053992 -117.582448 46 946ft 0kts
24-Jul-18 16:49 34.054040 -117.582407 24 946ft 0kts
24-Jul-18 16:50 34.054961 -117.584323 268 946ft 45kts
24-Jul-18 16:51 34.055324 -117.621373 271 1864ft 154kts
24-Jul-18 16:52 34.057886 -117.674607 269 4253ft 169kts
24-Jul-18 16:53 34.065679 -117.731054 282 6541ft 182kts
24-Jul-18 16:54 34.083326 -117.790781 309 8087ft 229kts
24-Jul-18 16:55 34.120320 -117.842908 304 10785ft 203kts
24-Jul-18 16:56 34.152968 -117.898486 305 12749ft 208kts
24-Jul-18 16:57 34.186916 -117.956085 305 14523ft 216kts
24-Jul-18 16:58 34.221265 -118.014414 304 16347ft 214kts
24-Jul-18 16:59 34.255796 -118.073146 304 17904ft 219kts
24-Jul-18 17:00 34.293456 -118.131027 311 19327ft 226kts
24-Jul-18 17:01 34.335919 -118.188113 310 20676ft 233kts
24-Jul-18 17:02 34.379462 -118.246478 310 21951ft 238kts
24-Jul-18 17:03 34.423564 -118.305601 309 23078ft 247kts
24-Jul-18 17:04 34.469229 -118.366870 309 24276ft 249kts
24-Jul-18 17:05 34.515559 -118.429138 308 25352ft 254kts
24-Jul-18 17:06 34.569105 -118.484092 329 26359ft 262kts
24-Jul-18 17:07 34.632710 -118.527114 329 27308ft 267kts
24-Jul-18 17:08 34.697930 -118.570607 329 28071ft 278kts
24-Jul-18 17:09 34.770032 -118.618544 329 28170ft 314kts
24-Jul-18 17:10 34.841417 -118.665966 329 28250ft 339kts
24-Jul-18 17:11 34.921773 -118.719364 328 28288ft 360kts
24-Jul-18 17:12 35.009173 -118.777620 327 28289ft 373kts
24-Jul-18 17:13 35.100250 -118.838575 327 28198ft 382kts
24-Jul-18 17:14 35.193600 -118.901174 327 28062ft 387kts
24-Jul-18 17:15 35.287128 -118.964031 326 28044ft 388kts
24-Jul-18 17:16 35.379644 -119.026376 326 28044ft 388kts
24-Jul-18 17:17 35.472474 -119.085610 343 28038ft 395kts
24-Jul-18 17:18 35.576623 -119.078788 4 28039ft 402kts
24-Jul-18 17:19 35.687118 -119.060873 6 26633ft 436kts
24-Jul-18 17:20 35.797146 -119.041482 6 24749ft 394kts
24-Jul-18 17:21 35.898822 -119.024668 355 22322ft 369kts
24-Jul-18 17:22 35.971677 -119.089545 314 19936ft 339kts
24-Jul-18 17:23 36.042989 -119.156580 323 17530ft 332kts
24-Jul-18 17:24 36.115662 -119.214359 326 15155ft 325kts
24-Jul-18 17:25 36.189529 -119.270605 327 12716ft 318kts
24-Jul-18 17:26 36.261379 -119.324712 328 10311ft 313kts
24-Jul-18 17:27 36.331464 -119.377460 328 7925ft 308kts
24-Jul-18 17:28 36.395558 -119.425793 328 5701ft 293kts
24-Jul-18 17:29 36.446357 -119.464132 328 5002ft 186kts
24-Jul-18 17:30 36.488702 -119.496128 330 4795ft 206kts
24-Jul-18 17:31 36.539302 -119.528866 327 3455ft 245kts
24-Jul-18 17:32 36.585926 -119.565869 327 3001ft 177kts
24-Jul-18 17:33 36.623334 -119.584914 336 2668ft 154kts
24-Jul-18 17:34 36.662891 -119.603970 336 1810ft 158kts
24-Jul-18 17:35 36.696197 -119.619905 336 1800ft 124kts
24-Jul-18 17:36 36.727090 -119.636875 309 1804ft 137kts
24-Jul-18 17:37 36.745521 -119.667102 306 1310ft 109kts
24-Jul-18 17:38 36.760897 -119.693773 305 720ft 109kts
24-Jul-18 17:39 36.774989 -119.718370 304 337ft 80kts
24-Jul-18 17:40 36.776496 -119.722548 215 337ft 0kts
24-Jul-18 17:41 36.775686 -119.723252 214 337ft 0kts
24-Jul-18 17:42 36.775026 -119.723828 205 337ft 0kts
24-Jul-18 17:43 36.774762 -119.723860 133 337ft 0kts
24-Jul-18 17:44 36.774762 -119.723860 133 337ft 0kts
24-Jul-18 17:45 36.774762 -119.723860 133 337ft 0kts

Navigation Log

Ident Type
Flight plan parsing failed, navigation log unavailable